createdAt,value
2022-11-05T00:01:40.187Z,18.55
2022-11-05T00:04:30.602Z,20.65
2022-11-05T00:09:43.613Z,20.92
2022-11-05T00:12:30.100Z,21.50
2022-11-05T00:15:15.471Z,18.23
2022-11-05T00:17:44.237Z,19.05
2022-11-05T00:20:13.445Z,19.27
2022-11-05T00:22:58.515Z,24.77
2022-11-05T00:25:26.360Z,16.17
2022-11-05T00:27:54.617Z,15.15
2022-11-05T00:30:23.780Z,14.88
2022-11-05T00:32:53.339Z,14.15
2022-11-05T00:35:21.504Z,11.40
2022-11-05T00:37:50.578Z,12.57
2022-11-05T00:40:18.417Z,12.90
2022-11-05T00:43:03.555Z,14.63
2022-11-05T00:45:31.440Z,15.32
2022-11-05T00:48:32.313Z,14.07
2022-11-05T00:50:59.690Z,14.63
2022-11-05T00:53:27.092Z,14.68
2022-11-05T00:55:54.537Z,11.52
2022-11-05T00:58:22.605Z,14.27
2022-11-05T01:00:51.037Z,13.63
2022-11-05T01:03:20.869Z,13.57
2022-11-05T01:05:49.101Z,12.63
2022-11-05T01:08:17.194Z,15.13
2022-11-05T01:10:45.129Z,17.10
2022-11-05T01:13:13.601Z,12.45
2022-11-05T01:15:41.177Z,11.38
2022-11-05T01:18:08.809Z,14.20
2022-11-05T01:20:37.515Z,12.35
2022-11-05T01:23:08.945Z,13.13
2022-11-05T01:25:40.488Z,13.57
2022-11-05T01:28:09.495Z,15.20
2022-11-05T01:30:37.234Z,15.15
2022-11-05T01:33:04.703Z,15.35
2022-11-05T01:35:32.140Z,14.55
2022-11-05T01:38:00.877Z,13.52
2022-11-05T01:40:28.229Z,14.82
2022-11-05T01:42:55.612Z,14.98
2022-11-05T01:45:24.517Z,14.85
2022-11-05T01:48:09.674Z,11.48
2022-11-05T01:50:41.426Z,14.90
2022-11-05T01:53:13.998Z,11.48
2022-11-05T01:55:43.007Z,13.43
2022-11-05T01:58:12.892Z,13.25
2022-11-05T02:00:40.905Z,15.18
2022-11-05T02:03:08.692Z,12.63
2022-11-05T02:05:36.479Z,11.90
2022-11-05T02:08:04.125Z,12.02
2022-11-05T02:10:33.038Z,12.90
2022-11-05T02:13:00.698Z,13.18
2022-11-05T02:15:35.198Z,13.10
2022-11-05T02:18:11.044Z,12.52
2022-11-05T02:20:42.400Z,11.65
2022-11-05T02:23:27.813Z,15.00
2022-11-05T02:26:13.120Z,12.75
2022-11-05T02:28:56.317Z,12.77
2022-11-05T02:31:27.158Z,20.27
2022-11-05T02:33:56.886Z,11.60
2022-11-05T02:36:29.058Z,13.27
2022-11-05T02:39:03.637Z,14.98
2022-11-05T02:41:32.005Z,11.10
2022-11-05T02:44:04.098Z,19.38
2022-11-05T02:46:35.747Z,17.25
2022-11-05T02:49:09.718Z,13.38
2022-11-05T02:51:40.185Z,13.18
2022-11-05T02:54:11.596Z,14.68
2022-11-05T02:56:40.986Z,17.20
2022-11-05T02:59:08.545Z,16.27
2022-11-05T03:01:38.452Z,15.50
2022-11-05T03:04:07.973Z,18.65
2022-11-05T03:06:42.094Z,15.90
2022-11-05T03:09:22.917Z,17.63
2022-11-05T03:11:56.849Z,16.15
2022-11-05T03:14:29.316Z,18.55
2022-11-05T03:17:01.055Z,16.05
2022-11-05T03:19:33.824Z,17.95
2022-11-05T03:22:03.485Z,14.70
2022-11-05T03:24:32.785Z,14.60
2022-11-05T03:27:01.598Z,14.40
2022-11-05T03:29:31.190Z,14.15
2022-11-05T03:32:01.779Z,18.05
2022-11-05T03:34:32.174Z,16.02
2022-11-05T03:37:00.161Z,13.15
2022-11-05T03:39:30.335Z,19.23
2022-11-05T03:41:58.477Z,17.40
2022-11-05T03:44:27.945Z,16.23
2022-11-05T03:46:57.814Z,14.25
2022-11-05T03:49:29.972Z,16.10
2022-11-05T03:52:00.850Z,15.13
2022-11-05T03:54:28.421Z,19.33
2022-11-05T03:57:00.348Z,14.63
2022-11-05T03:59:28.455Z,14.18
2022-11-05T04:01:56.048Z,19.70
2022-11-05T04:04:23.593Z,13.73
2022-11-05T04:07:09.950Z,19.95
2022-11-05T04:09:54.912Z,15.52
2022-11-05T04:12:39.786Z,13.70
2022-11-05T04:15:07.715Z,14.80
2022-11-05T04:17:34.231Z,13.98
2022-11-05T04:20:18.881Z,13.88
2022-11-05T04:23:04.957Z,15.80
2022-11-05T04:25:32.316Z,17.63
2022-11-05T04:28:00.175Z,17.55
2022-11-05T04:30:26.682Z,12.43
2022-11-05T04:32:57.901Z,18.33
2022-11-05T04:37:53.940Z,16.75
2022-11-05T04:40:21.264Z,14.57
2022-11-05T04:42:48.659Z,12.38
2022-11-05T04:45:16.150Z,17.50
2022-11-05T04:47:43.590Z,12.95
2022-11-05T04:50:12.126Z,12.70
2022-11-05T04:52:39.679Z,17.42
2022-11-05T04:55:08.813Z,10.18
2022-11-05T04:57:36.249Z,16.23
2022-11-05T05:00:03.681Z,20.67
2022-11-05T05:02:31.053Z,13.95
2022-11-05T05:04:58.455Z,18.25
2022-11-05T05:07:25.837Z,15.23
2022-11-05T05:09:54.859Z,17.33
2022-11-05T05:12:23.971Z,12.77
2022-11-05T05:14:51.331Z,14.18
2022-11-05T05:17:18.797Z,12.02
2022-11-05T05:20:04.138Z,17.50
2022-11-05T05:22:31.517Z,15.10
2022-11-05T05:24:59.917Z,13.93
2022-11-05T05:27:30.249Z,12.40
2022-11-05T05:29:57.809Z,14.10
2022-11-05T05:32:25.626Z,14.50
2022-11-05T05:34:53.452Z,15.80
2022-11-05T05:37:21.081Z,15.63
2022-11-05T05:39:48.746Z,14.25
2022-11-05T05:42:16.137Z,14.77
2022-11-05T05:44:44.881Z,13.45
2022-11-05T05:47:12.208Z,17.35
2022-11-05T05:49:39.588Z,14.45
2022-11-05T05:52:07.008Z,15.57
2022-11-05T05:54:39.727Z,9.98
2022-11-05T05:57:09.760Z,17.75
2022-11-05T05:59:37.138Z,12.63
2022-11-05T06:02:05.996Z,17.45
2022-11-05T06:04:33.416Z,14.93
2022-11-05T06:07:00.765Z,14.05
2022-11-05T06:09:28.097Z,13.02
2022-11-05T06:11:55.456Z,13.73
2022-11-05T06:14:22.870Z,12.32
2022-11-05T06:16:50.226Z,10.80
2022-11-05T06:19:18.981Z,17.25
2022-11-05T06:21:46.329Z,12.77
2022-11-05T06:24:13.796Z,14.85
2022-11-05T06:26:43.146Z,11.13
2022-11-05T06:29:10.925Z,9.60
2022-11-05T06:31:38.257Z,19.02
2022-11-05T06:34:05.564Z,15.93
2022-11-05T06:36:34.463Z,11.35
2022-11-05T06:39:01.817Z,16.83
2022-11-05T06:41:29.200Z,13.57
2022-11-05T06:43:56.559Z,19.15
2022-11-05T06:46:23.976Z,13.48
2022-11-05T06:48:51.893Z,13.65
2022-11-05T06:51:19.284Z,13.45
2022-11-05T06:53:48.018Z,17.52
2022-11-05T06:56:15.382Z,13.93
2022-11-05T06:58:42.774Z,11.95
2022-11-05T07:01:10.960Z,14.38
2022-11-05T07:03:38.775Z,15.25
2022-11-05T07:06:07.104Z,14.85
2022-11-05T07:08:34.984Z,14.05
2022-11-05T07:11:03.838Z,11.13
2022-11-05T07:13:31.222Z,12.63
2022-11-05T07:15:58.872Z,17.08
2022-11-05T07:18:26.289Z,12.38
2022-11-05T07:20:53.708Z,11.77
2022-11-05T07:23:21.112Z,16.10
2022-11-05T07:25:48.476Z,12.23
2022-11-05T07:28:17.178Z,13.52
2022-11-05T07:30:44.702Z,15.57
2022-11-05T07:33:12.505Z,11.95
2022-11-05T07:35:40.342Z,19.10
2022-11-05T07:38:07.730Z,18.15
2022-11-05T07:40:35.034Z,20.35
2022-11-05T07:43:02.621Z,18.30
2022-11-05T07:45:31.856Z,10.00
2022-11-05T07:48:00.388Z,12.80
2022-11-05T07:50:28.667Z,15.05
2022-11-05T07:53:00.211Z,16.70
2022-11-05T07:55:27.574Z,13.25
2022-11-05T07:57:54.956Z,14.40
2022-11-05T08:00:23.108Z,15.07
2022-11-05T08:03:06.855Z,19.42
2022-11-05T08:05:36.488Z,19.27
2022-11-05T08:08:04.419Z,17.23
2022-11-05T08:10:32.440Z,17.45
2022-11-05T08:12:59.774Z,17.13
2022-11-05T08:15:27.150Z,15.90
2022-11-05T08:18:00.031Z,20.33
2022-11-05T08:20:27.479Z,14.23
2022-11-05T08:22:55.274Z,15.40
2022-11-05T08:25:22.661Z,18.35
2022-11-05T08:27:55.699Z,25.25
2022-11-05T08:30:23.073Z,14.02
2022-11-05T08:32:50.470Z,15.10
2022-11-05T08:35:20.231Z,22.42
2022-11-05T08:37:47.617Z,15.07
2022-11-05T08:40:14.983Z,16.73
2022-11-05T08:42:42.343Z,15.93
2022-11-05T08:45:10.246Z,17.58
2022-11-05T08:47:37.660Z,14.82
2022-11-05T08:50:05.181Z,21.27
2022-11-05T08:52:34.000Z,13.50
2022-11-05T08:55:01.375Z,14.27
2022-11-05T08:57:28.788Z,16.77
2022-11-05T08:59:56.323Z,19.95
2022-11-05T09:02:23.777Z,15.50
2022-11-05T09:04:51.220Z,15.55
2022-11-05T09:07:18.616Z,18.05
2022-11-05T09:09:47.304Z,14.57
2022-11-05T09:12:15.081Z,14.93
2022-11-05T09:14:42.403Z,16.98
2022-11-05T09:17:14.169Z,16.77
2022-11-05T09:19:41.585Z,18.48
2022-11-05T09:22:08.983Z,20.70
2022-11-05T09:24:36.354Z,17.75
2022-11-05T09:27:05.084Z,16.48
2022-11-05T09:29:32.448Z,19.95
2022-11-05T09:31:59.790Z,16.35
2022-11-05T09:34:27.325Z,15.57
2022-11-05T09:36:54.674Z,9.95
2022-11-05T09:39:22.038Z,18.23
2022-11-05T09:41:50.270Z,18.42
2022-11-05T09:44:20.936Z,12.48
2022-11-05T09:46:50.503Z,14.15
2022-11-05T09:49:24.369Z,18.70
2022-11-05T09:51:52.845Z,13.10
2022-11-05T09:54:21.314Z,15.93
2022-11-05T09:56:48.757Z,14.88
2022-11-05T09:59:18.363Z,11.48
2022-11-05T10:01:47.563Z,10.13
2022-11-05T10:04:17.790Z,14.15
2022-11-05T10:06:47.602Z,15.70
2022-11-05T10:09:18.959Z,11.85
2022-11-05T10:11:49.036Z,8.15
2022-11-05T10:14:19.049Z,15.05
2022-11-05T10:16:49.994Z,11.07
2022-11-05T10:19:22.027Z,9.15
2022-11-05T10:22:06.319Z,10.98
2022-11-05T10:24:34.434Z,9.65
2022-11-05T10:27:02.465Z,8.32
2022-11-05T10:29:32.441Z,9.25
2022-11-05T10:32:02.365Z,11.25
2022-11-05T10:34:30.945Z,7.25
2022-11-05T10:36:58.545Z,11.18
2022-11-05T10:39:27.619Z,12.82
2022-11-05T10:42:12.004Z,11.68
2022-11-05T10:44:42.277Z,14.05
2022-11-05T10:47:17.540Z,9.13
2022-11-05T10:49:50.065Z,11.70
2022-11-05T10:52:22.352Z,10.15
2022-11-05T10:54:52.013Z,4.07
2022-11-05T10:57:33.577Z,4.93
2022-11-05T11:00:24.074Z,7.72
2022-11-05T11:02:54.079Z,4.45
2022-11-05T11:05:22.951Z,6.85
2022-11-05T11:07:54.726Z,4.38
2022-11-05T11:10:22.742Z,5.00
2022-11-05T11:12:51.031Z,7.15
2022-11-05T11:15:23.428Z,9.50
2022-11-05T11:17:50.784Z,9.13
2022-11-05T11:20:27.287Z,7.03
2022-11-05T11:23:05.441Z,6.68
2022-11-05T11:25:37.532Z,5.70
2022-11-05T11:28:05.837Z,6.90
2022-11-05T11:30:33.772Z,6.90
2022-11-05T11:33:07.973Z,7.45
2022-11-05T11:35:38.588Z,12.95
2022-11-05T11:38:06.720Z,7.53
2022-11-05T11:40:35.515Z,8.68
2022-11-05T11:43:04.958Z,9.45
2022-11-05T11:45:33.833Z,3.58
2022-11-05T11:48:03.131Z,8.07
2022-11-05T11:50:35.179Z,7.18
2022-11-05T11:53:25.804Z,7.43
2022-11-05T11:56:06.355Z,7.20
2022-11-05T11:58:38.358Z,7.13
2022-11-05T12:01:13.110Z,5.15
2022-11-05T12:03:44.149Z,8.98
2022-11-05T12:06:15.605Z,9.52
2022-11-05T12:08:56.386Z,6.18
2022-11-05T12:11:30.330Z,9.63
2022-11-05T12:14:04.176Z,5.85
2022-11-05T12:16:41.749Z,7.15
2022-11-05T12:19:14.918Z,4.97
2022-11-05T12:21:52.922Z,5.00
2022-11-05T12:24:28.433Z,14.13
2022-11-05T12:27:00.791Z,7.88
2022-11-05T12:29:42.591Z,6.32
2022-11-05T12:32:23.357Z,5.30
2022-11-05T12:34:55.623Z,5.30
2022-11-05T12:37:27.944Z,5.18
2022-11-05T12:40:01.632Z,3.30
2022-11-05T12:42:35.868Z,6.95
2022-11-05T12:45:05.089Z,4.38
2022-11-05T12:47:38.861Z,4.15
2022-11-05T12:50:15.098Z,4.47
2022-11-05T12:52:51.120Z,4.72
2022-11-05T12:55:21.201Z,5.95
2022-11-05T12:57:50.190Z,5.78
2022-11-05T13:00:19.573Z,6.13
2022-11-05T13:02:51.768Z,8.57
2022-11-05T13:05:20.922Z,6.05
2022-11-05T13:07:50.623Z,8.80
2022-11-05T13:10:23.382Z,6.90
2022-11-05T13:12:58.057Z,5.93
2022-11-05T13:15:27.174Z,4.40
2022-11-05T13:17:56.214Z,2.85
2022-11-05T13:20:25.364Z,4.75
2022-11-05T13:22:56.369Z,3.40
2022-11-05T13:25:26.208Z,5.68
2022-11-05T13:27:55.794Z,5.93
2022-11-05T13:30:24.181Z,8.93
2022-11-05T13:32:54.858Z,6.68
2022-11-05T13:35:25.523Z,7.90
2022-11-05T13:38:13.002Z,6.18
2022-11-05T13:40:48.424Z,4.80
2022-11-05T13:43:21.251Z,3.88
2022-11-05T13:46:05.370Z,4.28
2022-11-05T13:48:48.050Z,4.32
2022-11-05T13:51:34.814Z,4.80
2022-11-05T13:54:26.045Z,6.88
2022-11-05T13:57:01.920Z,5.65
2022-11-05T13:59:36.615Z,5.82
2022-11-05T14:02:05.763Z,7.70
2022-11-05T14:04:34.970Z,6.07
2022-11-05T14:07:13.782Z,4.43
2022-11-05T14:09:41.239Z,7.25
2022-11-05T14:12:17.347Z,7.82
2022-11-05T14:14:45.711Z,9.00
2022-11-05T14:17:17.522Z,6.22
2022-11-05T14:19:52.689Z,5.95
2022-11-05T14:22:36.096Z,5.35
2022-11-05T14:25:24.251Z,5.15
2022-11-05T14:27:53.393Z,8.38
2022-11-05T14:30:41.086Z,4.05
2022-11-05T14:33:15.296Z,4.55
2022-11-05T14:35:43.255Z,4.32
2022-11-05T14:38:19.681Z,5.60
2022-11-05T14:40:47.784Z,7.65
2022-11-05T14:43:22.529Z,6.15
2022-11-05T14:45:54.434Z,6.93
2022-11-05T14:48:28.147Z,5.78
2022-11-05T14:50:55.867Z,4.15
2022-11-05T14:53:28.269Z,5.72
2022-11-05T14:56:00.824Z,5.43
2022-11-05T14:58:31.163Z,6.35
2022-11-05T15:00:58.996Z,5.90
2022-11-05T15:03:31.506Z,4.93
2022-11-05T15:06:05.567Z,4.78
2022-11-05T15:08:36.474Z,4.93
2022-11-05T15:13:35.280Z,7.43
2022-11-05T15:16:04.248Z,6.68
2022-11-05T15:18:34.315Z,7.63
2022-11-05T15:21:03.114Z,8.35
2022-11-05T15:23:34.896Z,6.22
2022-11-05T15:26:06.032Z,7.82
2022-11-05T15:28:36.716Z,8.32
2022-11-05T15:31:05.194Z,6.95
2022-11-05T15:33:33.043Z,9.25
2022-11-05T15:36:09.365Z,8.18
2022-11-05T15:38:37.004Z,5.03
2022-11-05T15:41:05.306Z,7.57
2022-11-05T15:43:32.819Z,6.47
2022-11-05T15:46:03.076Z,8.70
2022-11-05T15:48:31.006Z,5.07
2022-11-05T15:50:58.475Z,8.27
2022-11-05T15:56:24.233Z,7.05
2022-11-05T15:58:53.945Z,11.77
2022-11-05T16:01:24.425Z,6.70
2022-11-05T16:03:53.154Z,8.90
2022-11-05T16:06:20.797Z,10.50
2022-11-05T16:08:49.115Z,8.82
2022-11-05T16:11:23.709Z,9.90
2022-11-05T16:13:51.599Z,9.18
2022-11-05T16:16:35.774Z,7.68
2022-11-05T16:19:03.100Z,10.90
2022-11-05T16:21:30.444Z,8.93
2022-11-05T16:23:58.697Z,8.02
2022-11-05T16:27:02.226Z,9.38
2022-11-05T16:29:24.964Z,10.73
2022-11-05T16:31:54.621Z,10.57
2022-11-05T16:34:25.898Z,13.90
2022-11-05T16:36:54.977Z,15.80
2022-11-05T16:39:22.468Z,17.95
2022-11-05T16:41:49.873Z,12.57
2022-11-05T16:44:17.240Z,12.13
2022-11-05T16:46:45.811Z,7.22
2022-11-05T16:49:14.548Z,11.88
2022-11-05T16:51:41.936Z,11.40
2022-11-05T16:54:09.645Z,13.63
2022-11-05T16:56:37.188Z,11.40
2022-11-05T16:59:04.669Z,16.10
2022-11-05T17:01:32.772Z,17.98
2022-11-05T17:04:00.236Z,14.05
2022-11-05T17:06:28.930Z,18.52
2022-11-05T17:08:56.313Z,19.23
2022-11-05T17:11:23.660Z,24.02
2022-11-05T17:13:51.114Z,42.90
2022-11-05T17:16:18.639Z,34.28
2022-11-05T17:18:46.017Z,18.10
2022-11-05T17:21:14.100Z,18.17
2022-11-05T17:23:42.823Z,16.92
2022-11-05T17:26:11.033Z,14.90
2022-11-05T17:28:38.966Z,14.00
2022-11-05T17:31:09.122Z,14.77
2022-11-05T17:33:36.517Z,34.83
2022-11-05T17:36:06.150Z,14.50
2022-11-05T17:38:33.556Z,13.63
2022-11-05T17:41:02.640Z,13.27
2022-11-05T17:43:30.006Z,12.80
2022-11-05T17:46:03.088Z,17.25
2022-11-05T17:48:31.796Z,17.65
2022-11-05T17:50:59.126Z,13.93
2022-11-05T17:53:26.469Z,11.35
2022-11-05T17:55:53.852Z,13.52
2022-11-05T17:58:22.585Z,12.07
2022-11-05T18:00:49.939Z,10.90
2022-11-05T18:03:17.431Z,15.50
2022-11-05T18:05:44.838Z,11.65
2022-11-05T18:08:12.616Z,12.40
2022-11-05T18:10:40.584Z,8.70
2022-11-05T18:13:08.258Z,10.80
2022-11-05T18:15:40.879Z,9.93
2022-11-05T18:18:08.388Z,7.60
2022-11-05T18:20:35.848Z,10.23
2022-11-05T18:23:03.236Z,10.85
2022-11-05T18:25:30.682Z,9.93
2022-11-05T18:27:58.093Z,16.95
2022-11-05T18:30:25.486Z,16.05
2022-11-05T18:32:54.241Z,12.35
2022-11-05T18:35:21.662Z,12.00
2022-11-05T18:37:49.034Z,12.30
2022-11-05T18:40:16.445Z,15.13
2022-11-05T18:42:43.853Z,16.85
2022-11-05T18:45:11.723Z,14.57
2022-11-05T18:47:39.215Z,20.00
2022-11-05T18:50:09.224Z,21.77
2022-11-05T18:52:36.669Z,18.75
2022-11-05T18:55:04.204Z,21.40
2022-11-05T18:57:33.418Z,14.20
2022-11-05T19:00:00.841Z,14.27
2022-11-05T19:02:28.562Z,15.15
2022-11-05T19:05:26.931Z,14.63
2022-11-05T19:07:44.879Z,18.23
2022-11-05T19:10:12.292Z,19.75
2022-11-05T19:12:39.672Z,17.23
2022-11-05T19:15:08.003Z,18.98
2022-11-05T19:17:35.692Z,16.85
2022-11-05T19:20:03.431Z,18.30
2022-11-05T19:22:30.861Z,20.80
2022-11-05T19:24:59.546Z,18.60
2022-11-05T19:27:26.974Z,23.95
2022-11-05T19:29:54.420Z,28.02
2022-11-05T19:32:21.845Z,28.08
2022-11-05T19:34:49.238Z,22.27
2022-11-05T19:37:16.808Z,23.52
2022-11-05T19:39:44.221Z,19.83
2022-11-05T19:42:12.991Z,21.55
2022-11-05T19:44:40.746Z,24.25
2022-11-05T19:47:08.171Z,19.85
2022-11-05T19:49:35.511Z,21.25
2022-11-05T19:52:02.888Z,16.98
2022-11-05T19:54:30.292Z,21.60
2022-11-05T19:56:58.532Z,24.75
2022-11-05T19:59:27.430Z,26.23
2022-11-05T20:01:54.875Z,27.63
2022-11-05T20:04:22.431Z,26.10
2022-11-05T20:06:49.791Z,24.75
2022-11-05T20:09:22.108Z,24.95
2022-11-05T20:11:50.565Z,21.73
2022-11-05T20:14:17.959Z,19.33
2022-11-05T20:16:47.270Z,19.30
2022-11-05T20:19:15.516Z,15.40
2022-11-05T20:21:43.154Z,15.10
2022-11-05T20:24:11.696Z,16.13
2022-11-05T20:26:39.332Z,15.18
2022-11-05T20:29:06.678Z,14.68
2022-11-05T20:31:34.253Z,15.02
2022-11-05T20:34:03.021Z,16.80
2022-11-05T20:36:30.417Z,15.15
2022-11-05T20:38:58.633Z,19.95
2022-11-05T20:41:26.599Z,16.52
2022-11-05T20:43:54.302Z,17.52
2022-11-05T20:46:22.568Z,16.38
2022-11-05T20:48:50.310Z,16.60
2022-11-05T20:51:20.111Z,18.10
2022-11-05T20:53:47.778Z,17.13
2022-11-05T20:56:18.863Z,18.27
2022-11-05T20:58:46.348Z,20.38
2022-11-05T21:01:15.585Z,19.30
2022-11-05T21:03:43.350Z,19.75
2022-11-05T21:06:10.954Z,17.27
2022-11-05T21:08:39.782Z,18.23
2022-11-05T21:11:07.997Z,17.27
2022-11-05T21:13:35.950Z,15.85
2022-11-05T21:16:03.613Z,19.35
2022-11-05T21:18:32.047Z,18.52
2022-11-05T21:21:00.333Z,13.95
2022-11-05T21:23:28.027Z,15.25
2022-11-05T21:25:56.726Z,14.57
2022-11-05T21:28:24.345Z,13.95
2022-11-05T21:30:51.741Z,11.68
2022-11-05T21:33:19.292Z,12.38
2022-11-05T21:35:47.471Z,11.85
2022-11-05T21:38:15.724Z,14.65
2022-11-05T21:40:43.516Z,11.45
2022-11-05T21:43:12.265Z,12.02
2022-11-05T21:45:39.777Z,12.57
2022-11-05T21:48:07.406Z,11.73
2022-11-05T21:50:52.433Z,12.57
2022-11-05T21:53:37.244Z,9.80
2022-11-05T21:56:24.172Z,14.52
2022-11-05T21:59:10.545Z,12.32
2022-11-05T22:01:38.032Z,8.32
2022-11-05T22:04:05.632Z,11.45
2022-11-05T22:06:34.341Z,11.23
2022-11-05T22:09:01.670Z,12.25
2022-11-05T22:11:29.054Z,16.25
2022-11-05T22:13:57.780Z,12.98
2022-11-05T22:16:25.216Z,12.77
2022-11-05T22:18:52.595Z,18.50
2022-11-05T22:21:19.997Z,10.85
2022-11-05T22:23:47.364Z,15.18
2022-11-05T22:26:14.759Z,11.98
2022-11-05T22:28:42.132Z,14.18
2022-11-05T22:31:14.147Z,14.50
2022-11-05T22:33:41.622Z,13.90
2022-11-05T22:36:09.644Z,15.00
2022-11-05T22:38:37.122Z,9.32
2022-11-05T22:41:07.764Z,11.70
2022-11-05T22:43:35.093Z,12.57
2022-11-05T22:46:04.625Z,10.45
2022-11-05T22:48:33.345Z,13.20
2022-11-05T22:51:03.377Z,13.23
2022-11-05T22:53:30.936Z,11.63
2022-11-05T22:55:58.340Z,12.23
2022-11-05T22:58:25.713Z,14.90
2022-11-05T23:00:53.055Z,12.55
2022-11-05T23:03:20.471Z,17.23
2022-11-05T23:05:56.716Z,9.73
2022-11-05T23:08:41.437Z,13.77
2022-11-05T23:11:36.666Z,13.20
2022-11-05T23:14:04.039Z,18.77
2022-11-05T23:16:49.010Z,17.95
2022-11-05T23:19:33.696Z,21.42
2022-11-05T23:22:19.764Z,15.93
2022-11-05T23:24:48.060Z,21.35
2022-11-05T23:27:15.384Z,16.10
2022-11-05T23:29:42.768Z,16.55
2022-11-05T23:32:25.136Z,17.05
2022-11-05T23:34:52.834Z,10.55
2022-11-05T23:37:40.058Z,10.45
2022-11-05T23:40:09.039Z,13.75
2022-11-05T23:42:54.156Z,15.02
2022-11-05T23:45:39.082Z,13.63
2022-11-05T23:48:18.753Z,10.80
2022-11-05T23:50:47.755Z,8.20
2022-11-05T23:53:16.470Z,12.65
2022-11-05T23:55:44.320Z,12.65
2022-11-05T23:58:12.414Z,10.27
